This is the latest recevied weather packets stored in our database for station/object OK1KKY-18. If no packets are shown the sender has not sent any weather packets the latest 10 day(s).
| Time | Temp. | Humidity | Pressure | Rain* | Wind** | Luminosity | Snow |
|---|---|---|---|---|---|---|---|
| 1778079362 | 18.89° C | 49% | 1006.6 hPa | - | - | - | - |
| 1778078762 | 20° C | 45% | 1006.6 hPa | - | - | - | - |
| 1778078162 | 20° C | 46% | 1006.5 hPa | - | - | - | - |
| 1778077562 | 20.56° C | 45% | 1006.6 hPa | - | - | - | - |
| 1778076962 | 20.56° C | 46% | 1006.6 hPa | - | - | - | - |
| 1778076362 | 19.44° C | 47% | 1006.7 hPa | - | - | - | - |
| 1778075762 | 20.56° C | 45% | 1006.9 hPa | - | - | - | - |
| 1778075162 | 20.56° C | 46% | 1007 hPa | - | - | - | - |
| 1778074562 | 20° C | 49% | 1007 hPa | - | - | - | - |
| 1778073962 | 18.89° C | 50% | 1007.2 hPa | - | - | - | - |
| 1778073362 | 17.78° C | 55% | 1007.2 hPa | - | - | - | - |
| 1778072762 | 17.78° C | 56% | 1007.5 hPa | - | - | - | - |
| 1778072162 | 18.33° C | 54% | 1007.5 hPa | - | - | - | - |
| 1778071562 | 18.33° C | 54% | 1007.6 hPa | - | - | - | - |
| 1778070962 | 18.89° C | 53% | 1007.6 hPa | - | - | - | - |
| 1778070362 | 18.33° C | 53% | 1007.8 hPa | - | - | - | - |
| 1778069762 | 18.33° C | 54% | 1007.9 hPa | - | - | - | - |
| 1778069162 | 17.78° C | 55% | 1007.8 hPa | - | - | - | - |
| 1778068562 | 17.78° C | 56% | 1007.7 hPa | - | - | - | - |
| 1778067962 | 16.67° C | 56% | 1007.8 hPa | - | - | - | - |
| 1778067362 | 16.67° C | 60% | 1007.9 hPa | - | - | - | - |
| 1778066762 | 16.11° C | 61% | 1007.9 hPa | - | - | - | - |
| 1778066162 | 16.11° C | 64% | 1007.9 hPa | - | - | - | - |
| 1778065562 | 16.11° C | 62% | 1008 hPa | - | - | - | - |
| 1778064962 | 16.11° C | 63% | 1008 hPa | - | - | - | - |
* Rain since midnight (hover to see other rain measurements)
** Current wind speed in m/s (hover to see current wind gust speed)